FW6932 Weather Reports


Display with metric or nautical units.
time (UTC)temp
F
wind
direction
speed
MPH
gust
MPH
rain 1hr
in
rain 24hr
in
rain mn
in
humidity
%
barometer
mb
20220125103913 30 274 9.0 10.0 0.00 0.00 0.00 87 1032.5
20220125102728 29 283 7.0 8.0 0.00 0.00 0.00 87 1032.7
20220125101753 30 270 8.0 8.0 0.00 0.00 0.00 87 1033.1
20220125100713 30 329 4.0 5.0 0.00 0.00 0.00 87 1033.2
20220125095529 29 330 5.0 6.0 0.00 0.00 0.00 87 1033.2
20220125094542 30 312 5.0 7.0 0.00 0.00 0.00 87 1033.2
20220125093602 29 340 5.0 7.0 0.00 0.00 0.00 88 1033.1
20220125092522 29 330 5.0 6.0 0.00 0.00 0.00 88 1033.3
20220125091544 29 327 2.0 2.0 0.00 0.00 0.00 88 1033.2
20220125090552 28 332 1.0 1.0 0.00 0.00 0.00 89 1033.4
20220125085512 28 286 5.0 6.0 0.00 0.00 0.00 89 1033.5
20220125084329 28 282 2.0 5.0 0.00 0.00 0.00 89 1033.7
20220125083354 28 295 3.0 5.0 0.00 0.00 0.00 89 1033.4
20220125082313 28 318 4.0 5.0 0.00 0.00 0.00 90 1033.7
20220125081128 28 328 2.0 2.0 0.00 0.00 0.00 90 1033.5
20220125080214 27 344 6.0 6.0 0.00 0.00 0.00 91 1033.5
20220125075132 27 345 3.0 3.0 0.00 0.00 0.00 91 1033.3
20220125073948 27 335 3.0 3.0 0.00 0.00 0.00 91 1033.7
20220125072952 27 340 3.0 5.0 0.00 0.00 0.00 91 1033.9
20220125071912 27 300 2.0 2.0 0.00 0.00 0.00 91 1033.5
20220125070728 27 336 0.0 0.0 0.00 0.00 0.00 91 1033.7
20220125065752 26 336 0.0 0.0 0.00 0.00 0.00 91 1033.5
20220125064712 27 336 0.0 0.0 0.00 0.00 0.00 91 1033.5
20220125063528 27 330 0.0 0.0 0.00 0.00 0.00 91 1033.9
20220125062552 27 256 2.0 2.0 0.00 0.00 0.00 91 1033.7
20220125061513 27 323 1.0 2.0 0.00 0.00 0.00 90 1033.8
20220125055352 27 328 4.0 5.0 0.00 0.00 0.00 89 1034.2
20220125054313 27 278 5.0 6.0 0.00 0.00 0.00 88 1034.1
20220125053129 27 327 0.0 0.0 0.00 0.00 0.00 85 1034.0
20220125052154 27 327 0.0 0.0 0.00 0.00 0.00 83 1034.0
20220125051113 27 327 0.0 0.0 0.00 0.00 0.00 83 1034.3
20220125045928 27 327 0.0 0.0 0.00 0.00 0.00 81 1034.3
20220125044952 26 327 0.0 0.0 0.00 0.00 0.00 80 1034.2
20220125043913 26 327 0.0 0.0 0.00 0.00 0.00 80 1034.0
20220125042832 26 327 0.0 0.0 0.00 0.00 0.00 80 1034.1
20220125041856 26 327 0.0 0.0 0.00 0.00 0.00 80 1034.2
20220125040820 26 327 0.0 0.0 0.00 0.00 0.00 80 1034.5
20220125035632 26 327 0.0 0.0 0.00 0.00 0.00 81 1034.5
20220125034657 26 327 0.0 0.0 0.00 0.00 0.00 81 1034.7
20220125033616 26 327 0.0 0.0 0.00 0.00 0.00 81 1034.7
20220125032432 26 327 0.0 0.0 0.00 0.00 0.00 80 1034.9
20220125031458 26 327 0.0 0.0 0.00 0.00 0.00 80 1034.9
20220125030416 26 327 0.0 0.0 0.00 0.00 0.00 79 1035.0
20220125025233 26 327 0.0 0.0 0.00 0.00 0.00 78 1035.2
20220125024304 26 327 0.0 0.0 0.00 0.00 0.00 79 1035.4
20220125023216 26 327 0.0 0.0 0.00 0.00 0.00 80 1035.2
20220125022033 26 327 0.0 0.0 0.00 0.00 0.00 79 1035.5
20220125021056 26 327 0.0 0.0 0.00 0.00 0.00 80 1035.4
20220125020017 26 327 0.0 0.0 0.00 0.00 0.00 80 1035.4
20220125014835 26 327 0.0 0.0 0.00 0.00 0.00 80 1035.8
20220125013857 26 327 0.0 0.0 0.00 0.00 0.00 81 1035.7
20220125012816 26 327 0.0 0.0 0.00 0.00 0.00 81 1035.9
20220125011634 26 327 0.0 0.0 0.00 0.00 0.00 81 1035.9
20220125010656 26 327 0.0 0.0 0.00 0.00 0.00 80 1036.0
20220125005616 26 327 0.0 0.0 0.00 0.00 0.00 80 1036.1
20220125004432 26 327 0.0 0.0 0.00 0.00 0.00 81 1036.3
20220125003457 26 327 0.0 0.0 0.00 0.00 0.00 81 1036.2
20220125002504 25 327 0.0 0.0 0.00 0.00 0.00 81 1036.2
20220125001431 25 327 0.0 0.0 0.00 0.00 0.00 81 1036.2
20220125000438 25 327 0.0 0.0 0.00 0.00 0.00 81 1036.6
20220124235456 25 327 0.0 0.0 0.00 0.00 0.00 81 1036.3
20220124234417 25 327 0.0 0.0 0.00 0.00 0.00 81 1036.8
20220124233441 25 327 0.0 0.0 0.00 0.00 0.00 81 1036.7
20220124232503 25 327 0.0 0.0 0.00 0.00 0.00 82 1037.0
20220124231424 25 327 0.0 0.0 0.00 0.00 0.00 80 1036.9
20220124230434 25 327 0.0 0.0 0.00 0.00 0.00 79 1036.8
20220124225457 25 327 0.0 0.0 0.00 0.00 0.00 81 1037.0
20220124224416 25 327 0.0 0.0 0.00 0.00 0.00 80 1036.9
20220124223232 25 327 0.0 0.0 0.00 0.00 0.00 81 1037.0
20220124222255 25 327 0.0 0.0 0.00 0.00 0.00 82 1037.1
20220124221216 25 327 0.0 0.0 0.00 0.00 0.00 82 1037.4
20220124220034 25 327 0.0 0.0 0.00 0.00 0.00 82 1037.5
20220124215056 25 327 0.0 0.0 0.00 0.00 0.00 83 1037.3
20220124214016 25 327 0.0 0.0 0.00 0.00 0.00 83 1037.4
20220124212842 25 327 0.0 0.0 0.00 0.00 0.00 83 1037.4
20220124211855 25 327 0.0 0.0 0.00 0.00 0.00 81 1037.4
20220124210816 25 327 0.0 0.0 0.00 0.00 0.00 81 1037.5
20220124205631 25 327 0.0 0.0 0.00 0.00 0.00 82 1037.5
20220124204655 25 327 0.0 0.0 0.00 0.00 0.00 82 1037.5
20220124203616 25 327 0.0 0.0 0.00 0.00 0.00 80 1037.5
20220124202432 25 319 0.0 0.0 0.00 0.00 0.00 80 1037.6
20220124201455 25 319 0.0 0.0 0.00 0.00 0.00 81 1037.3
20220124200417 25 319 0.0 0.0 0.00 0.00 0.00 80 1037.4
20220124195232 25 297 0.0 0.0 0.00 0.00 0.00 80 1037.3
20220124194256 25 318 0.0 0.0 0.00 0.00 0.00 81 1037.5
20220124193216 24 319 0.0 0.0 0.00 0.00 0.00 81 1037.5
20220124192031 24 304 0.0 0.0 0.00 0.00 0.00 81 1037.5
20220124191057 24 247 0.0 0.0 0.00 0.00 0.00 80 1037.6
20220124190019 24 171 0.0 0.0 0.00 0.00 0.00 79 1037.2
20220124184833 24 282 0.0 0.0 0.00 0.00 0.00 80 1037.5
20220124183900 23 320 0.0 0.0 0.00 0.00 0.00 82 1037.5
20220124182816 24 319 0.0 0.0 0.00 0.00 0.00 81 1037.8
20220124181636 24 319 0.0 0.0 0.00 0.00 0.00 81 1037.6
20220124180655 23 319 0.0 0.0 0.00 0.00 0.00 82 1037.8
20220124175624 24 224 0.0 0.0 0.00 0.00 0.00 80 1037.5
20220124174641 24 222 0.0 0.0 0.00 0.00 0.00 80 1037.6
20220124173703 23 315 0.0 0.0 0.00 0.00 0.00 81 1037.5
20220124172623 23 307 0.0 0.0 0.00 0.00 0.00 81 1037.4
20220124171647 23 300 0.0 0.0 0.00 0.00 0.00 80 1037.4
20220124170657 23 286 0.0 0.0 0.00 0.00 0.00 80 1037.3
20220124165616 24 253 0.0 0.0 0.00 0.00 0.00 79 1037.4
20220124164431 24 129 0.0 0.0 0.00 0.00 0.00 79 1037.4
20220124163456 25 129 0.0 0.0 0.00 0.00 0.00 78 1037.3
20220124162415 25 129 0.0 0.0 0.00 0.00 0.00 78 1037.3
20220124161232 25 129 0.0 0.0 0.00 0.00 0.00 78 1037.3
20220124160255 25 174 0.0 0.0 0.00 0.00 0.00 77 1037.5
20220124155215 27 277 0.0 0.0 0.00 0.00 0.00 73 1037.5
20220124154033 27 121 0.0 0.0 0.00 0.00 0.00 73 1037.2
20220124153055 27 121 0.0 0.0 0.00 0.00 0.00 73 1037.2
20220124152015 28 121 0.0 0.0 0.00 0.00 0.00 71 1037.3
20220124151039 29 121 0.0 0.0 0.00 0.00 0.00 69 1037.1
20220124150104 29 133 0.0 0.0 0.00 0.00 0.00 69 1037.5
20220124145023 30 179 0.0 0.0 0.00 0.00 0.00 68 1037.3
20220124144048 30 131 0.0 0.0 0.00 0.00 0.00 67 1037.4
20220124143057 30 120 3.0 3.0 0.00 0.00 0.00 66 1037.5
20220124142015 30 113 0.0 0.0 0.00 0.00 0.00 66 1037.2
20220124140816 30 117 5.0 6.0 0.00 0.00 0.00 66 1037.5
20220124135632 31 120 4.0 5.0 0.00 0.00 0.00 65 1037.2
20220124134656 32 163 0.0 0.0 0.00 0.00 0.00 64 1037.2
20220124133617 32 132 0.0 0.0 0.00 0.00 0.00 64 1037.2
20220124132432 31 142 3.0 5.0 0.00 0.00 0.00 64 1037.1
20220124131455 31 167 3.0 3.0 0.00 0.00 0.00 64 1037.4
20220124130416 31 96 0.0 1.0 0.00 0.00 0.00 64 1037.5
20220124125231 31 70 0.0 0.0 0.00 0.00 0.00 64 1037.3
20220124124256 31 57 2.0 2.0 0.00 0.00 0.00 63 1037.3
20220124123215 32 71 0.0 0.0 0.00 0.00 0.00 63 1037.4
20220124122031 31 71 0.0 0.0 0.00 0.00 0.00 64 1037.3
20220124121056 31 76 2.0 3.0 0.00 0.00 0.00 65 1037.3
20220124120015 31 128 4.0 5.0 0.00 0.00 0.00 65 1037.3
20220124114831 30 58 1.0 1.0 0.00 0.00 0.00 65 1037.5
20220124113855 30 114 3.0 6.0 0.00 0.00 0.00 66 1037.3
20220124112904 30 70 2.0 5.0 0.00 0.00 0.00 66 1037.6
20220124111912 30 93 4.0 6.0 0.00 0.00 0.00 65 1037.7
20220124110815 30 109 4.0 5.0 0.00 0.00 0.00 66 1037.8
20220124105631 30 122 4.0 6.0 0.00 0.00 0.00 67 1037.8
20220124104639 30 106 3.0 3.0 0.00 0.00 0.00 66 1038.0